sensor_id;sensor_type;location;lat;lon;timestamp;temperature;humidity
70593;DHT22;58294;42.988;20.338;2022-08-19T00:00:27;512.00;1587.20
70593;DHT22;58294;42.988;20.338;2022-08-19T00:02:53;512.00;1587.20
70593;DHT22;58294;42.988;20.338;2022-08-19T00:05:21;512.00;1587.20
70593;DHT22;58294;42.988;20.338;2022-08-19T00:07:47;512.00;1561.60
70593;DHT22;58294;42.988;20.338;2022-08-19T00:10:16;487.20;1561.60
70593;DHT22;58294;42.988;20.338;2022-08-19T00:12:42;487.20;1561.60
70593;DHT22;58294;42.988;20.338;2022-08-19T00:15:11;487.20;1561.60
70593;DHT22;58294;42.988;20.338;2022-08-19T00:17:44;487.10;1561.60
70593;DHT22;58294;42.988;20.338;2022-08-19T00:20:12;487.10;1561.60
70593;DHT22;58294;42.988;20.338;2022-08-19T00:22:39;486.90;1587.20
70593;DHT22;58294;42.988;20.338;2022-08-19T00:25:07;486.90;1587.20
70593;DHT22;58294;42.988;20.338;2022-08-19T00:27:34;486.90;1612.80
70593;DHT22;58294;42.988;20.338;2022-08-19T00:30:00;486.80;1612.80
70593;DHT22;58294;42.988;20.338;2022-08-19T00:32:28;486.80;1612.80
70593;DHT22;58294;42.988;20.338;2022-08-19T00:34:54;486.80;1612.80
70593;DHT22;58294;42.988;20.338;2022-08-19T00:37:22;486.80;1612.80
70593;DHT22;58294;42.988;20.338;2022-08-19T00:39:49;486.80;1612.80
70593;DHT22;58294;42.988;20.338;2022-08-19T00:42:18;486.70;1612.80
70593;DHT22;58294;42.988;20.338;2022-08-19T00:44:44;486.60;1612.80
70593;DHT22;58294;42.988;20.338;2022-08-19T00:47:10;486.60;1612.80
70593;DHT22;58294;42.988;20.338;2022-08-19T00:49:57;486.50;1612.80
70593;DHT22;58294;42.988;20.338;2022-08-19T00:52:32;486.50;1561.60
70593;DHT22;58294;42.988;20.338;2022-08-19T00:54:59;486.50;1638.40
70593;DHT22;58294;42.988;20.338;2022-08-19T00:57:35;486.40;1664.00
70593;DHT22;58294;42.988;20.338;2022-08-19T01:00:05;486.40;1638.40
70593;DHT22;58294;42.988;20.338;2022-08-19T01:02:32;486.40;1638.40
70593;DHT22;58294;42.988;20.338;2022-08-19T01:05:00;461.70;1664.00
70593;DHT22;58294;42.988;20.338;2022-08-19T01:07:27;461.60;1664.00
70593;DHT22;58294;42.988;20.338;2022-08-19T01:09:53;461.60;1664.00
70593;DHT22;58294;42.988;20.338;2022-08-19T01:12:20;461.60;1664.00
70593;DHT22;58294;42.988;20.338;2022-08-19T01:14:47;461.60;1689.60
70593;DHT22;58294;42.988;20.338;2022-08-19T01:17:15;461.60;1689.60
70593;DHT22;58294;42.988;20.338;2022-08-19T01:19:43;461.50;1689.60
70593;DHT22;58294;42.988;20.338;2022-08-19T01:22:36;461.50;1689.60
70593;DHT22;58294;42.988;20.338;2022-08-19T01:25:01;461.50;1664.00
70593;DHT22;58294;42.988;20.338;2022-08-19T01:27:39;461.40;1689.60
70593;DHT22;58294;42.988;20.338;2022-08-19T01:30:06;461.30;1638.40
70593;DHT22;58294;42.988;20.338;2022-08-19T01:32:33;461.30;1689.60
70593;DHT22;58294;42.988;20.338;2022-08-19T01:34:59;461.20;1689.60
70593;DHT22;58294;42.988;20.338;2022-08-19T01:37:27;461.20;1689.60
70593;DHT22;58294;42.988;20.338;2022-08-19T01:39:53;461.20;1715.20
70593;DHT22;58294;42.988;20.338;2022-08-19T01:42:19;461.10;1715.20
70593;DHT22;58294;42.988;20.338;2022-08-19T01:44:45;461.20;1740.80
70593;DHT22;58294;42.988;20.338;2022-08-19T01:47:11;461.20;1740.80
70593;DHT22;58294;42.988;20.338;2022-08-19T01:49:37;461.10;1740.80
70593;DHT22;58294;42.988;20.338;2022-08-19T01:52:04;461.10;1740.80
70593;DHT22;58294;42.988;20.338;2022-08-19T01:54:30;461.10;1740.80
70593;DHT22;58294;42.988;20.338;2022-08-19T01:57:07;461.10;1715.20
70593;DHT22;58294;42.988;20.338;2022-08-19T01:59:33;461.10;1715.20
70593;DHT22;58294;42.988;20.338;2022-08-19T02:02:04;461.00;1740.80
70593;DHT22;58294;42.988;20.338;2022-08-19T02:04:32;461.00;1740.80
70593;DHT22;58294;42.988;20.338;2022-08-19T02:06:59;460.90;1740.80
70593;DHT22;58294;42.988;20.338;2022-08-19T02:09:25;460.90;1740.80
70593;DHT22;58294;42.988;20.338;2022-08-19T02:11:51;460.90;1740.80
70593;DHT22;58294;42.988;20.338;2022-08-19T02:14:17;460.90;1740.80
70593;DHT22;58294;42.988;20.338;2022-08-19T02:16:43;460.90;1740.80
70593;DHT22;58294;42.988;20.338;2022-08-19T02:19:09;460.90;1766.40
70593;DHT22;58294;42.988;20.338;2022-08-19T02:21:36;460.80;1766.40
70593;DHT22;58294;42.988;20.338;2022-08-19T02:24:02;460.90;1766.40
70593;DHT22;58294;42.988;20.338;2022-08-19T02:26:28;460.80;1766.40
70593;DHT22;58294;42.988;20.338;2022-08-19T02:28:55;460.80;1766.40
70593;DHT22;58294;42.988;20.338;2022-08-19T02:31:23;460.80;1766.40
70593;DHT22;58294;42.988;20.338;2022-08-19T02:33:49;460.80;1766.40
70593;DHT22;58294;42.988;20.338;2022-08-19T02:36:16;460.80;1766.40
70593;DHT22;58294;42.988;20.338;2022-08-19T02:38:43;460.80;1766.40
70593;DHT22;58294;42.988;20.338;2022-08-19T02:41:16;460.80;1766.40
70593;DHT22;58294;42.988;20.338;2022-08-19T02:43:42;460.80;1766.40
70593;DHT22;58294;42.988;20.338;2022-08-19T02:46:23;436.10;1766.40
70593;DHT22;58294;42.988;20.338;2022-08-19T02:48:54;460.80;1740.80
70593;DHT22;58294;42.988;20.338;2022-08-19T02:51:28;436.10;1740.80
70593;DHT22;58294;42.988;20.338;2022-08-19T02:53:54;436.00;1715.20
70593;DHT22;58294;42.988;20.338;2022-08-19T02:56:20;436.00;1740.80
70593;DHT22;58294;42.988;20.338;2022-08-19T02:58:47;436.00;1740.80
70593;DHT22;58294;42.988;20.338;2022-08-19T03:01:34;435.90;1740.80
70593;DHT22;58294;42.988;20.338;2022-08-19T03:04:03;435.90;1664.00
70593;DHT22;58294;42.988;20.338;2022-08-19T03:06:29;435.80;1740.80
70593;DHT22;58294;42.988;20.338;2022-08-19T03:08:56;435.80;1766.40
70593;DHT22;58294;42.988;20.338;2022-08-19T03:11:28;435.70;1766.40
70593;DHT22;58294;42.988;20.338;2022-08-19T03:13:56;435.70;1766.40
70593;DHT22;58294;42.988;20.338;2022-08-19T03:16:24;435.70;1766.40
70593;DHT22;58294;42.988;20.338;2022-08-19T03:18:52;435.70;1792.00
70593;DHT22;58294;42.988;20.338;2022-08-19T03:21:21;435.70;1792.00
70593;DHT22;58294;42.988;20.338;2022-08-19T03:23:47;435.70;1792.00
70593;DHT22;58294;42.988;20.338;2022-08-19T03:26:13;435.60;1792.00
70593;DHT22;58294;42.988;20.338;2022-08-19T03:28:44;435.60;1792.00
70593;DHT22;58294;42.988;20.338;2022-08-19T03:31:18;435.60;1792.00
70593;DHT22;58294;42.988;20.338;2022-08-19T03:33:44;435.60;1792.00
70593;DHT22;58294;42.988;20.338;2022-08-19T03:36:17;435.60;1792.00
70593;DHT22;58294;42.988;20.338;2022-08-19T03:38:47;435.50;1766.40
70593;DHT22;58294;42.988;20.338;2022-08-19T03:41:19;435.50;1792.00
70593;DHT22;58294;42.988;20.338;2022-08-19T03:43:46;435.50;1792.00
70593;DHT22;58294;42.988;20.338;2022-08-19T03:46:26;435.50;1817.60
70593;DHT22;58294;42.988;20.338;2022-08-19T03:48:54;435.50;1817.60
70593;DHT22;58294;42.988;20.338;2022-08-19T03:51:24;435.50;1817.60
70593;DHT22;58294;42.988;20.338;2022-08-19T03:53:52;435.50;1843.20
70593;DHT22;58294;42.988;20.338;2022-08-19T03:56:18;435.50;1817.60
70593;DHT22;58294;42.988;20.338;2022-08-19T03:58:44;435.40;1817.60
70593;DHT22;58294;42.988;20.338;2022-08-19T04:01:12;435.40;1817.60
70593;DHT22;58294;42.988;20.338;2022-08-19T04:03:39;435.40;1817.60
70593;DHT22;58294;42.988;20.338;2022-08-19T04:06:30;435.30;1817.60
70593;DHT22;58294;42.988;20.338;2022-08-19T04:08:58;435.30;1766.40
70593;DHT22;58294;42.988;20.338;2022-08-19T04:11:28;435.30;1817.60
70593;DHT22;58294;42.988;20.338;2022-08-19T04:13:55;435.20;1817.60
70593;DHT22;58294;42.988;20.338;2022-08-19T04:16:24;435.20;1843.20
70593;DHT22;58294;42.988;20.338;2022-08-19T04:18:51;435.30;1843.20
70593;DHT22;58294;42.988;20.338;2022-08-19T04:21:21;435.30;1843.20
70593;DHT22;58294;42.988;20.338;2022-08-19T04:23:48;435.30;1868.80
70593;DHT22;58294;42.988;20.338;2022-08-19T04:26:19;435.30;1868.80
70593;DHT22;58294;42.988;20.338;2022-08-19T04:28:45;435.40;1868.80
70593;DHT22;58294;42.988;20.338;2022-08-19T04:31:25;435.40;1868.80
70593;DHT22;58294;42.988;20.338;2022-08-19T04:33:56;435.40;1817.60
70593;DHT22;58294;42.988;20.338;2022-08-19T04:36:25;435.40;1843.20
70593;DHT22;58294;42.988;20.338;2022-08-19T04:38:55;435.40;1843.20
70593;DHT22;58294;42.988;20.338;2022-08-19T04:41:23;435.40;1843.20
70593;DHT22;58294;42.988;20.338;2022-08-19T04:44:07;435.40;1843.20
70593;DHT22;58294;42.988;20.338;2022-08-19T04:46:33;435.40;1843.20
70593;DHT22;58294;42.988;20.338;2022-08-19T04:49:01;435.40;1868.80
70593;DHT22;58294;42.988;20.338;2022-08-19T04:51:27;435.50;1868.80
70593;DHT22;58294;42.988;20.338;2022-08-19T04:53:56;435.50;1868.80
70593;DHT22;58294;42.988;20.338;2022-08-19T04:56:22;435.50;1894.40
70593;DHT22;58294;42.988;20.338;2022-08-19T04:58:52;435.60;1920.00
70593;DHT22;58294;42.988;20.338;2022-08-19T05:01:23;435.60;1920.00
70593;DHT22;58294;42.988;20.338;2022-08-19T05:03:49;435.70;1920.00
70593;DHT22;58294;42.988;20.338;2022-08-19T05:06:17;435.70;1920.00
70593;DHT22;58294;42.988;20.338;2022-08-19T05:08:44;435.80;1920.00
70593;DHT22;58294;42.988;20.338;2022-08-19T05:11:17;435.90;1920.00
70593;DHT22;58294;42.988;20.338;2022-08-19T05:13:44;435.90;1894.40
70593;DHT22;58294;42.988;20.338;2022-08-19T05:16:12;436.00;1894.40
70593;DHT22;58294;42.988;20.338;2022-08-19T05:18:39;436.00;1920.00
70593;DHT22;58294;42.988;20.338;2022-08-19T05:21:24;436.00;1894.40
70593;DHT22;58294;42.988;20.338;2022-08-19T05:24:08;436.10;1920.00
70593;DHT22;58294;42.988;20.338;2022-08-19T05:26:36;460.80;1945.60
70593;DHT22;58294;42.988;20.338;2022-08-19T05:29:02;460.80;1945.60
70593;DHT22;58294;42.988;20.338;2022-08-19T05:31:29;460.90;1971.20
70593;DHT22;58294;42.988;20.338;2022-08-19T05:33:55;460.90;1971.20
70593;DHT22;58294;42.988;20.338;2022-08-19T05:36:21;461.00;1945.60
70593;DHT22;58294;42.988;20.338;2022-08-19T05:38:47;461.20;1971.20
70593;DHT22;58294;42.988;20.338;2022-08-19T05:41:14;461.20;1971.20
70593;DHT22;58294;42.988;20.338;2022-08-19T05:43:41;461.30;1945.60
70593;DHT22;58294;42.988;20.338;2022-08-19T05:46:08;461.40;1945.60
70593;DHT22;58294;42.988;20.338;2022-08-19T05:48:41;461.50;1945.60
70593;DHT22;58294;42.988;20.338;2022-08-19T05:51:07;461.50;1945.60
70593;DHT22;58294;42.988;20.338;2022-08-19T05:53:35;461.60;1945.60
70593;DHT22;58294;42.988;20.338;2022-08-19T05:56:09;461.70;1945.60
70593;DHT22;58294;42.988;20.338;2022-08-19T05:58:36;486.40;1920.00
70593;DHT22;58294;42.988;20.338;2022-08-19T06:01:03;486.50;1945.60
70593;DHT22;58294;42.988;20.338;2022-08-19T06:03:35;486.50;1945.60
70593;DHT22;58294;42.988;20.338;2022-08-19T06:06:03;486.60;1945.60
70593;DHT22;58294;42.988;20.338;2022-08-19T06:08:30;486.70;1945.60
70593;DHT22;58294;42.988;20.338;2022-08-19T06:10:56;486.80;1945.60
70593;DHT22;58294;42.988;20.338;2022-08-19T06:13:22;486.90;1945.60
70593;DHT22;58294;42.988;20.338;2022-08-19T06:15:49;487.00;1945.60
70593;DHT22;58294;42.988;20.338;2022-08-19T06:18:15;487.10;1920.00
70593;DHT22;58294;42.988;20.338;2022-08-19T06:20:42;487.20;1920.00
70593;DHT22;58294;42.988;20.338;2022-08-19T06:23:08;487.20;1920.00
70593;DHT22;58294;42.988;20.338;2022-08-19T06:25:35;512.00;1920.00
70593;DHT22;58294;42.988;20.338;2022-08-19T06:28:01;512.10;1920.00
70593;DHT22;58294;42.988;20.338;2022-08-19T06:30:27;512.20;1920.00
70593;DHT22;58294;42.988;20.338;2022-08-19T06:32:53;512.30;1920.00
70593;DHT22;58294;42.988;20.338;2022-08-19T06:35:19;512.50;1920.00
70593;DHT22;58294;42.988;20.338;2022-08-19T06:37:45;512.60;1894.40
70593;DHT22;58294;42.988;20.338;2022-08-19T06:40:12;512.70;1894.40
70593;DHT22;58294;42.988;20.338;2022-08-19T06:42:38;512.80;1894.40
70593;DHT22;58294;42.988;20.338;2022-08-19T06:45:05;537.60;1920.00
70593;DHT22;58294;42.988;20.338;2022-08-19T06:47:33;537.70;1945.60
70593;DHT22;58294;42.988;20.338;2022-08-19T06:50:00;537.90;1945.60
70593;DHT22;58294;42.988;20.338;2022-08-19T06:52:31;538.00;1920.00
70593;DHT22;58294;42.988;20.338;2022-08-19T06:54:58;538.10;1920.00
70593;DHT22;58294;42.988;20.338;2022-08-19T06:57:25;538.30;1894.40
70593;DHT22;58294;42.988;20.338;2022-08-19T06:59:51;538.40;1894.40
70593;DHT22;58294;42.988;20.338;2022-08-19T07:02:18;563.30;1920.00
70593;DHT22;58294;42.988;20.338;2022-08-19T07:04:44;563.30;1920.00
70593;DHT22;58294;42.988;20.338;2022-08-19T07:07:12;563.40;1894.40
70593;DHT22;58294;42.988;20.338;2022-08-19T07:09:41;563.60;1920.00
70593;DHT22;58294;42.988;20.338;2022-08-19T07:12:09;563.70;1894.40
70593;DHT22;58294;42.988;20.338;2022-08-19T07:14:36;563.80;1894.40
70593;DHT22;58294;42.988;20.338;2022-08-19T07:17:07;563.90;1868.80
70593;DHT22;58294;42.988;20.338;2022-08-19T07:19:33;564.10;1843.20
70593;DHT22;58294;42.988;20.338;2022-08-19T07:22:02;588.80;1817.60
70593;DHT22;58294;42.988;20.338;2022-08-19T07:24:28;588.80;1843.20
70593;DHT22;58294;42.988;20.338;2022-08-19T07:26:56;589.00;1843.20
70593;DHT22;58294;42.988;20.338;2022-08-19T07:29:26;589.10;1843.20
70593;DHT22;58294;42.988;20.338;2022-08-19T07:31:53;589.30;1817.60
70593;DHT22;58294;42.988;20.338;2022-08-19T07:34:22;589.40;1792.00
70593;DHT22;58294;42.988;20.338;2022-08-19T07:36:48;589.50;1817.60
70593;DHT22;58294;42.988;20.338;2022-08-19T07:39:21;589.70;1817.60
70593;DHT22;58294;42.988;20.338;2022-08-19T07:41:47;614.40;1843.20
70593;DHT22;58294;42.988;20.338;2022-08-19T07:44:14;614.50;1792.00
70593;DHT22;58294;42.988;20.338;2022-08-19T07:46:44;614.80;1766.40
70593;DHT22;58294;42.988;20.338;2022-08-19T07:49:12;614.80;1766.40
70593;DHT22;58294;42.988;20.338;2022-08-19T07:51:47;614.90;1766.40
70593;DHT22;58294;42.988;20.338;2022-08-19T07:54:14;615.10;1766.40
70593;DHT22;58294;42.988;20.338;2022-08-19T07:56:40;615.20;1689.60
70593;DHT22;58294;42.988;20.338;2022-08-19T07:59:06;615.30;1664.00
70593;DHT22;58294;42.988;20.338;2022-08-19T08:01:33;640.00;1664.00
70593;DHT22;58294;42.988;20.338;2022-08-19T08:03:59;640.20;1638.40
70593;DHT22;58294;42.988;20.338;2022-08-19T08:06:43;640.30;1587.20
70593;DHT22;58294;42.988;20.338;2022-08-19T08:09:37;640.60;1561.60
70593;DHT22;58294;42.988;20.338;2022-08-19T08:12:07;640.80;1510.40
70593;DHT22;58294;42.988;20.338;2022-08-19T08:21:58;666.30;1587.20
70593;DHT22;58294;42.988;20.338;2022-08-19T08:31:46;691.40;1561.60
70593;DHT22;58294;42.988;20.338;2022-08-19T08:34:13;691.30;1510.40
70593;DHT22;58294;42.988;20.338;2022-08-19T08:36:42;691.40;1459.20
70593;DHT22;58294;42.988;20.338;2022-08-19T08:39:14;691.40;1484.80
70593;DHT22;58294;42.988;20.338;2022-08-19T08:42:05;691.70;1536.00
70593;DHT22;58294;42.988;20.338;2022-08-19T08:47:15;691.90;1510.40
70593;DHT22;58294;42.988;20.338;2022-08-19T08:49:59;692.00;1459.20
70593;DHT22;58294;42.988;20.338;2022-08-19T08:52:36;716.80;1510.40
70593;DHT22;58294;42.988;20.338;2022-08-19T08:55:13;716.80;1459.20
70593;DHT22;58294;42.988;20.338;2022-08-19T09:00:20;717.20;1484.80
70593;DHT22;58294;42.988;20.338;2022-08-19T09:02:47;717.40;1408.00
70593;DHT22;58294;42.988;20.338;2022-08-19T09:05:14;717.50;1408.00
70593;DHT22;58294;42.988;20.338;2022-08-19T09:08:08;717.60;1408.00
70593;DHT22;58294;42.988;20.338;2022-08-19T09:11:09;742.40;1433.60
70593;DHT22;58294;42.988;20.338;2022-08-19T09:13:44;742.60;1459.20
70593;DHT22;58294;42.988;20.338;2022-08-19T09:16:17;742.60;1382.40
70593;DHT22;58294;42.988;20.338;2022-08-19T09:18:51;742.70;1382.40
70593;DHT22;58294;42.988;20.338;2022-08-19T09:21:20;742.80;1408.00
70593;DHT22;58294;42.988;20.338;2022-08-19T09:23:46;743.00;1382.40
70593;DHT22;58294;42.988;20.338;2022-08-19T09:26:16;743.10;1356.80
70593;DHT22;58294;42.988;20.338;2022-08-19T09:28:44;743.20;1356.80
70593;DHT22;58294;42.988;20.338;2022-08-19T09:31:17;743.30;1331.20
70593;DHT22;58294;42.988;20.338;2022-08-19T09:33:44;768.10;1228.80
70593;DHT22;58294;42.988;20.338;2022-08-19T09:36:13;768.10;1280.00
70593;DHT22;58294;42.988;20.338;2022-08-19T09:38:39;768.30;1254.40
70593;DHT22;58294;42.988;20.338;2022-08-19T09:41:13;768.50;1254.40
70593;DHT22;58294;42.988;20.338;2022-08-19T09:43:40;768.60;1203.20
70593;DHT22;58294;42.988;20.338;2022-08-19T09:46:08;768.80;1203.20
70593;DHT22;58294;42.988;20.338;2022-08-19T09:48:36;793.60;1177.60
70593;DHT22;58294;42.988;20.338;2022-08-19T09:53:34;793.90;1126.40
70593;DHT22;58294;42.988;20.338;2022-08-19T09:56:01;794.10;1152.00
70593;DHT22;58294;42.988;20.338;2022-08-19T09:58:27;794.10;1100.80
70593;DHT22;58294;42.988;20.338;2022-08-19T10:00:55;794.30;1075.20
70593;DHT22;58294;42.988;20.338;2022-08-19T10:03:22;794.30;1100.80
70593;DHT22;58294;42.988;20.338;2022-08-19T10:05:48;794.40;1126.40
70593;DHT22;58294;42.988;20.338;2022-08-19T10:08:20;819.20;1100.80
70593;DHT22;58294;42.988;20.338;2022-08-19T10:10:47;819.30;1024.00
70593;DHT22;58294;42.988;20.338;2022-08-19T10:13:15;819.40;1049.60
70593;DHT22;58294;42.988;20.338;2022-08-19T10:15:42;819.70;1049.60
70593;DHT22;58294;42.988;20.338;2022-08-19T10:20:35;819.90;1049.60
70593;DHT22;58294;42.988;20.338;2022-08-19T10:23:02;819.90;1075.20
70593;DHT22;58294;42.988;20.338;2022-08-19T10:25:28;820.10;1100.80
70593;DHT22;58294;42.988;20.338;2022-08-19T10:27:54;845.10;1024.00
70593;DHT22;58294;42.988;20.338;2022-08-19T10:32:47;870.90;1049.60
70593;DHT22;58294;42.988;20.338;2022-08-19T10:52:46;947.40;870.40
70593;DHT22;58294;42.988;20.338;2022-08-19T10:55:12;947.70;947.20
70593;DHT22;58294;42.988;20.338;2022-08-19T10:57:56;972.80;844.80
70593;DHT22;58294;42.988;20.338;2022-08-19T11:00:23;973.10;819.20
70593;DHT22;58294;42.988;20.338;2022-08-19T11:02:50;973.30;793.60
70593;DHT22;58294;42.988;20.338;2022-08-19T11:10:12;998.80;947.20
70593;DHT22;58294;42.988;20.338;2022-08-19T11:12:39;998.90;793.60
70593;DHT22;58294;42.988;20.338;2022-08-19T11:15:07;998.90;870.40
70593;DHT22;58294;42.988;20.338;2022-08-19T11:17:34;998.90;742.40
70593;DHT22;58294;42.988;20.338;2022-08-19T11:20:02;999.00;768.00
70593;DHT22;58294;42.988;20.338;2022-08-19T11:22:30;998.90;716.80
70593;DHT22;58294;42.988;20.338;2022-08-19T11:24:56;999.00;742.40
70593;DHT22;58294;42.988;20.338;2022-08-19T11:27:21;998.80;742.40
70593;DHT22;58294;42.988;20.338;2022-08-19T11:32:13;1024.00;819.20
70593;DHT22;58294;42.988;20.338;2022-08-19T11:34:41;1024.10;716.80
70593;DHT22;58294;42.988;20.338;2022-08-19T11:39:34;1024.50;768.00
70593;DHT22;58294;42.988;20.338;2022-08-19T11:54:35;1049.90;716.80
70593;DHT22;58294;42.988;20.338;2022-08-19T11:57:03;1049.90;665.60
70593;DHT22;58294;42.988;20.338;2022-08-19T11:59:29;1049.80;640.00
70593;DHT22;58294;42.988;20.338;2022-08-19T12:01:55;1049.70;640.00
70593;DHT22;58294;42.988;20.338;2022-08-19T12:04:22;1024.80;614.40
70593;DHT22;58294;42.988;20.338;2022-08-19T12:06:48;1049.60;640.00
70593;DHT22;58294;42.988;20.338;2022-08-19T12:09:15;1049.60;640.00
70593;DHT22;58294;42.988;20.338;2022-08-19T12:11:41;1050.10;716.80
70593;DHT22;58294;42.988;20.338;2022-08-19T12:16:35;1050.30;665.60
70593;DHT22;58294;42.988;20.338;2022-08-19T12:19:04;1050.30;588.80
70593;DHT22;58294;42.988;20.338;2022-08-19T12:21:31;1050.00;614.40
70593;DHT22;58294;42.988;20.338;2022-08-19T12:24:00;1050.00;614.40
70593;DHT22;58294;42.988;20.338;2022-08-19T12:26:28;1050.30;614.40
70593;DHT22;58294;42.988;20.338;2022-08-19T12:28:54;1050.20;588.80
70593;DHT22;58294;42.988;20.338;2022-08-19T12:31:20;1050.30;614.40
70593;DHT22;58294;42.988;20.338;2022-08-19T12:33:47;1050.50;588.80
70593;DHT22;58294;42.988;20.338;2022-08-19T12:36:15;1075.20;537.60
70593;DHT22;58294;42.988;20.338;2022-08-19T12:38:41;1075.20;563.20
70593;DHT22;58294;42.988;20.338;2022-08-19T12:41:11;1075.30;563.20
70593;DHT22;58294;42.988;20.338;2022-08-19T12:43:37;1075.40;537.60
70593;DHT22;58294;42.988;20.338;2022-08-19T12:46:04;1075.40;537.60
70593;DHT22;58294;42.988;20.338;2022-08-19T12:48:31;1075.30;537.60
70593;DHT22;58294;42.988;20.338;2022-08-19T12:58:23;998.90;537.60
70593;DHT22;58294;42.988;20.338;2022-08-19T13:00:49;998.40;588.80
70593;DHT22;58294;42.988;20.338;2022-08-19T13:03:15;973.30;614.40
70593;DHT22;58294;42.988;20.338;2022-08-19T13:05:41;972.80;614.40
70593;DHT22;58294;42.988;20.338;2022-08-19T13:08:07;947.80;614.40
70593;DHT22;58294;42.988;20.338;2022-08-19T13:10:34;947.20;640.00
70593;DHT22;58294;42.988;20.338;2022-08-19T13:17:54;921.60;665.60
70593;DHT22;58294;42.988;20.338;2022-08-19T13:20:21;896.70;665.60
70593;DHT22;58294;42.988;20.338;2022-08-19T13:25:15;896.10;691.20
70593;DHT22;58294;42.988;20.338;2022-08-19T13:30:11;871.20;665.60
70593;DHT22;58294;42.988;20.338;2022-08-19T13:32:56;870.90;716.80
70593;DHT22;58294;42.988;20.338;2022-08-19T13:35:39;870.80;716.80
70593;DHT22;58294;42.988;20.338;2022-08-19T13:38:05;870.60;716.80
70593;DHT22;58294;42.988;20.338;2022-08-19T13:40:31;870.40;742.40
70593;DHT22;58294;42.988;20.338;2022-08-19T13:42:59;845.70;742.40
70593;DHT22;58294;42.988;20.338;2022-08-19T13:45:27;845.60;742.40
70593;DHT22;58294;42.988;20.338;2022-08-19T13:47:55;845.40;742.40
70593;DHT22;58294;42.988;20.338;2022-08-19T13:50:24;845.40;768.00
70593;DHT22;58294;42.988;20.338;2022-08-19T13:52:54;845.30;768.00
70593;DHT22;58294;42.988;20.338;2022-08-19T13:55:20;845.30;793.60
70593;DHT22;58294;42.988;20.338;2022-08-19T13:57:50;845.10;793.60
70593;DHT22;58294;42.988;20.338;2022-08-19T14:00:17;845.00;793.60
70593;DHT22;58294;42.988;20.338;2022-08-19T14:02:45;845.00;793.60
70593;DHT22;58294;42.988;20.338;2022-08-19T14:05:13;844.90;793.60
70593;DHT22;58294;42.988;20.338;2022-08-19T14:07:39;844.90;793.60
70593;DHT22;58294;42.988;20.338;2022-08-19T14:10:07;820.10;768.00
70593;DHT22;58294;42.988;20.338;2022-08-19T14:12:35;820.00;768.00
70593;DHT22;58294;42.988;20.338;2022-08-19T14:15:02;820.00;793.60
70593;DHT22;58294;42.988;20.338;2022-08-19T14:17:28;820.00;793.60
70593;DHT22;58294;42.988;20.338;2022-08-19T14:20:02;819.90;793.60
70593;DHT22;58294;42.988;20.338;2022-08-19T14:22:39;820.10;819.20
70593;DHT22;58294;42.988;20.338;2022-08-19T14:25:08;844.80;844.80
70593;DHT22;58294;42.988;20.338;2022-08-19T14:27:36;844.80;819.20
70593;DHT22;58294;42.988;20.338;2022-08-19T14:30:04;844.80;819.20
70593;DHT22;58294;42.988;20.338;2022-08-19T14:32:29;844.80;819.20
70593;DHT22;58294;42.988;20.338;2022-08-19T14:34:55;844.80;819.20
70593;DHT22;58294;42.988;20.338;2022-08-19T14:37:21;844.80;819.20
70593;DHT22;58294;42.988;20.338;2022-08-19T14:39:48;844.80;819.20
70593;DHT22;58294;42.988;20.338;2022-08-19T14:42:14;844.90;819.20
70593;DHT22;58294;42.988;20.338;2022-08-19T14:44:41;844.90;819.20
70593;DHT22;58294;42.988;20.338;2022-08-19T14:47:07;844.90;819.20
70593;DHT22;58294;42.988;20.338;2022-08-19T14:49:34;844.90;819.20
70593;DHT22;58294;42.988;20.338;2022-08-19T14:51:59;844.80;793.60
70593;DHT22;58294;42.988;20.338;2022-08-19T14:54:25;844.80;793.60
70593;DHT22;58294;42.988;20.338;2022-08-19T14:56:51;844.80;819.20
70593;DHT22;58294;42.988;20.338;2022-08-19T14:59:17;844.80;819.20
70593;DHT22;58294;42.988;20.338;2022-08-19T15:01:43;820.10;793.60
70593;DHT22;58294;42.988;20.338;2022-08-19T15:04:10;820.10;793.60
70593;DHT22;58294;42.988;20.338;2022-08-19T15:06:35;820.10;819.20
70593;DHT22;58294;42.988;20.338;2022-08-19T15:09:02;820.00;819.20
70593;DHT22;58294;42.988;20.338;2022-08-19T15:11:28;820.00;819.20
70593;DHT22;58294;42.988;20.338;2022-08-19T15:13:55;820.00;844.80
70593;DHT22;58294;42.988;20.338;2022-08-19T15:16:21;820.00;844.80
70593;DHT22;58294;42.988;20.338;2022-08-19T15:18:50;819.90;844.80
70593;DHT22;58294;42.988;20.338;2022-08-19T15:21:17;819.90;844.80
70593;DHT22;58294;42.988;20.338;2022-08-19T15:23:47;819.80;844.80
70593;DHT22;58294;42.988;20.338;2022-08-19T15:26:15;819.80;844.80
70593;DHT22;58294;42.988;20.338;2022-08-19T15:28:41;819.80;844.80
70593;DHT22;58294;42.988;20.338;2022-08-19T15:31:08;819.80;844.80
70593;DHT22;58294;42.988;20.338;2022-08-19T15:33:35;819.70;844.80
70593;DHT22;58294;42.988;20.338;2022-08-19T15:36:06;819.70;844.80
70593;DHT22;58294;42.988;20.338;2022-08-19T15:38:33;819.60;844.80
70593;DHT22;58294;42.988;20.338;2022-08-19T15:41:00;819.50;844.80
70593;DHT22;58294;42.988;20.338;2022-08-19T15:43:45;819.50;870.40
70593;DHT22;58294;42.988;20.338;2022-08-19T15:46:11;819.50;870.40
70593;DHT22;58294;42.988;20.338;2022-08-19T15:48:37;819.40;870.40
70593;DHT22;58294;42.988;20.338;2022-08-19T15:51:03;819.40;844.80
70593;DHT22;58294;42.988;20.338;2022-08-19T15:53:29;819.40;844.80
70593;DHT22;58294;42.988;20.338;2022-08-19T15:55:54;819.40;844.80
70593;DHT22;58294;42.988;20.338;2022-08-19T15:58:20;819.30;844.80
70593;DHT22;58294;42.988;20.338;2022-08-19T16:01:06;819.20;844.80
70593;DHT22;58294;42.988;20.338;2022-08-19T16:03:53;794.40;870.40
70593;DHT22;58294;42.988;20.338;2022-08-19T16:06:40;794.30;870.40
70593;DHT22;58294;42.988;20.338;2022-08-19T16:09:05;794.20;896.00
70593;DHT22;58294;42.988;20.338;2022-08-19T16:11:33;794.20;896.00
70593;DHT22;58294;42.988;20.338;2022-08-19T16:14:00;794.10;947.20